sensor_id;sensor_type;location;lat;lon;timestamp;temperature;humidity
9542;DHT22;4809;48.224;8.572;2023-09-19T00:00:27;14.80;99.90
9542;DHT22;4809;48.224;8.572;2023-09-19T00:02:54;14.80;99.90
9542;DHT22;4809;48.224;8.572;2023-09-19T00:05:29;14.80;99.90
9542;DHT22;4809;48.224;8.572;2023-09-19T00:07:56;14.80;99.90
9542;DHT22;4809;48.224;8.572;2023-09-19T00:10:26;14.80;99.90
9542;DHT22;4809;48.224;8.572;2023-09-19T00:12:56;14.80;99.90
9542;DHT22;4809;48.224;8.572;2023-09-19T00:15:22;14.80;99.90
9542;DHT22;4809;48.224;8.572;2023-09-19T00:17:48;14.80;99.90
9542;DHT22;4809;48.224;8.572;2023-09-19T00:20:14;14.80;99.90
9542;DHT22;4809;48.224;8.572;2023-09-19T00:22:43;14.80;99.90
9542;DHT22;4809;48.224;8.572;2023-09-19T00:25:10;14.80;99.90
9542;DHT22;4809;48.224;8.572;2023-09-19T00:27:37;14.80;99.90
9542;DHT22;4809;48.224;8.572;2023-09-19T00:30:08;14.80;99.90
9542;DHT22;4809;48.224;8.572;2023-09-19T00:32:47;14.80;99.90
9542;DHT22;4809;48.224;8.572;2023-09-19T00:35:14;14.80;99.90
9542;DHT22;4809;48.224;8.572;2023-09-19T00:37:41;14.80;99.90
9542;DHT22;4809;48.224;8.572;2023-09-19T00:40:09;14.80;99.90
9542;DHT22;4809;48.224;8.572;2023-09-19T00:42:45;14.70;99.90
9542;DHT22;4809;48.224;8.572;2023-09-19T00:45:12;14.80;99.90
9542;DHT22;4809;48.224;8.572;2023-09-19T00:47:39;14.80;99.90
9542;DHT22;4809;48.224;8.572;2023-09-19T00:50:06;14.80;99.90
9542;DHT22;4809;48.224;8.572;2023-09-19T00:52:39;14.80;99.90
9542;DHT22;4809;48.224;8.572;2023-09-19T00:55:08;14.80;99.90
9542;DHT22;4809;48.224;8.572;2023-09-19T00:57:34;14.80;99.90
9542;DHT22;4809;48.224;8.572;2023-09-19T01:00:01;14.80;99.90
9542;DHT22;4809;48.224;8.572;2023-09-19T01:02:34;14.80;99.90
9542;DHT22;4809;48.224;8.572;2023-09-19T01:05:00;14.80;99.90
9542;DHT22;4809;48.224;8.572;2023-09-19T01:07:30;14.80;99.90
9542;DHT22;4809;48.224;8.572;2023-09-19T01:09:57;14.80;99.90
9542;DHT22;4809;48.224;8.572;2023-09-19T01:29:39;14.80;99.90
9542;DHT22;4809;48.224;8.572;2023-09-19T01:32:10;14.70;99.90
9542;DHT22;4809;48.224;8.572;2023-09-19T01:34:48;14.70;99.90
9542;DHT22;4809;48.224;8.572;2023-09-19T01:37:16;14.60;99.90
9542;DHT22;4809;48.224;8.572;2023-09-19T01:39:46;14.60;99.90
9542;DHT22;4809;48.224;8.572;2023-09-19T01:45:36;14.60;99.90
9542;DHT22;4809;48.224;8.572;2023-09-19T01:51:05;14.60;99.90
9542;DHT22;4809;48.224;8.572;2023-09-19T01:54:00;14.60;99.90
9542;DHT22;4809;48.224;8.572;2023-09-19T01:56:59;14.50;99.90
9542;DHT22;4809;48.224;8.572;2023-09-19T01:59:34;14.40;99.90
9542;DHT22;4809;48.224;8.572;2023-09-19T02:02:01;14.40;99.90
9542;DHT22;4809;48.224;8.572;2023-09-19T02:04:27;14.40;99.90
9542;DHT22;4809;48.224;8.572;2023-09-19T02:06:53;14.40;99.90
9542;DHT22;4809;48.224;8.572;2023-09-19T02:09:19;14.40;99.90
9542;DHT22;4809;48.224;8.572;2023-09-19T02:11:45;14.50;99.90
9542;DHT22;4809;48.224;8.572;2023-09-19T02:14:11;14.50;99.90
9542;DHT22;4809;48.224;8.572;2023-09-19T02:16:37;14.50;99.90
9542;DHT22;4809;48.224;8.572;2023-09-19T02:19:03;14.50;99.90
9542;DHT22;4809;48.224;8.572;2023-09-19T02:21:31;14.50;99.90
9542;DHT22;4809;48.224;8.572;2023-09-19T02:23:57;14.50;99.90
9542;DHT22;4809;48.224;8.572;2023-09-19T02:26:24;14.60;99.90
9542;DHT22;4809;48.224;8.572;2023-09-19T02:28:50;14.60;99.90
9542;DHT22;4809;48.224;8.572;2023-09-19T02:31:15;14.50;99.90
9542;DHT22;4809;48.224;8.572;2023-09-19T02:33:42;14.50;99.90
9542;DHT22;4809;48.224;8.572;2023-09-19T02:36:08;14.60;99.90
9542;DHT22;4809;48.224;8.572;2023-09-19T02:38:34;14.60;99.90
9542;DHT22;4809;48.224;8.572;2023-09-19T02:41:00;14.60;99.90
9542;DHT22;4809;48.224;8.572;2023-09-19T02:43:27;14.60;99.90
9542;DHT22;4809;48.224;8.572;2023-09-19T02:45:53;14.60;99.90
9542;DHT22;4809;48.224;8.572;2023-09-19T02:48:22;14.60;99.90
9542;DHT22;4809;48.224;8.572;2023-09-19T02:50:51;14.70;99.90
9542;DHT22;4809;48.224;8.572;2023-09-19T02:53:17;14.70;99.90
9542;DHT22;4809;48.224;8.572;2023-09-19T02:55:44;14.70;99.90
9542;DHT22;4809;48.224;8.572;2023-09-19T02:58:10;14.60;99.90
9542;DHT22;4809;48.224;8.572;2023-09-19T03:00:40;14.60;99.90
9542;DHT22;4809;48.224;8.572;2023-09-19T03:03:07;14.60;99.90
9542;DHT22;4809;48.224;8.572;2023-09-19T03:05:34;14.60;99.90
9542;DHT22;4809;48.224;8.572;2023-09-19T03:08:00;14.60;99.90
9542;DHT22;4809;48.224;8.572;2023-09-19T03:10:27;14.60;99.90
9542;DHT22;4809;48.224;8.572;2023-09-19T03:12:53;14.60;99.90
9542;DHT22;4809;48.224;8.572;2023-09-19T03:15:19;14.60;99.90
9542;DHT22;4809;48.224;8.572;2023-09-19T03:17:46;14.60;99.90
9542;DHT22;4809;48.224;8.572;2023-09-19T03:20:13;14.60;99.90
9542;DHT22;4809;48.224;8.572;2023-09-19T03:22:39;14.60;99.90
9542;DHT22;4809;48.224;8.572;2023-09-19T03:25:06;14.60;99.90
9542;DHT22;4809;48.224;8.572;2023-09-19T03:27:36;14.60;99.90
9542;DHT22;4809;48.224;8.572;2023-09-19T03:30:03;14.60;99.90
9542;DHT22;4809;48.224;8.572;2023-09-19T03:32:37;14.60;99.90
9542;DHT22;4809;48.224;8.572;2023-09-19T03:35:03;14.60;99.90
9542;DHT22;4809;48.224;8.572;2023-09-19T03:37:32;14.60;99.90
9542;DHT22;4809;48.224;8.572;2023-09-19T03:40:01;14.60;99.90
9542;DHT22;4809;48.224;8.572;2023-09-19T03:42:31;14.60;99.90
9542;DHT22;4809;48.224;8.572;2023-09-19T03:44:56;14.50;99.90
9542;DHT22;4809;48.224;8.572;2023-09-19T03:47:22;14.60;99.90
9542;DHT22;4809;48.224;8.572;2023-09-19T03:49:48;14.50;99.90
9542;DHT22;4809;48.224;8.572;2023-09-19T03:52:13;14.50;99.90
9542;DHT22;4809;48.224;8.572;2023-09-19T03:54:41;14.50;99.90
9542;DHT22;4809;48.224;8.572;2023-09-19T03:57:07;14.60;99.90
9542;DHT22;4809;48.224;8.572;2023-09-19T03:59:32;14.60;99.90
9542;DHT22;4809;48.224;8.572;2023-09-19T04:01:58;14.60;99.90
9542;DHT22;4809;48.224;8.572;2023-09-19T04:04:24;14.50;99.90
9542;DHT22;4809;48.224;8.572;2023-09-19T04:06:53;14.50;99.90
9542;DHT22;4809;48.224;8.572;2023-09-19T04:09:19;14.50;99.90
9542;DHT22;4809;48.224;8.572;2023-09-19T04:11:45;14.50;99.90
9542;DHT22;4809;48.224;8.572;2023-09-19T04:14:10;14.50;99.90
9542;DHT22;4809;48.224;8.572;2023-09-19T04:16:36;14.50;99.90
9542;DHT22;4809;48.224;8.572;2023-09-19T04:19:02;14.50;99.90
9542;DHT22;4809;48.224;8.572;2023-09-19T04:21:29;14.50;99.90
9542;DHT22;4809;48.224;8.572;2023-09-19T04:23:54;14.40;99.90
9542;DHT22;4809;48.224;8.572;2023-09-19T04:26:20;14.50;99.90
9542;DHT22;4809;48.224;8.572;2023-09-19T04:28:47;14.40;99.90
9542;DHT22;4809;48.224;8.572;2023-09-19T04:31:12;14.40;99.90
9542;DHT22;4809;48.224;8.572;2023-09-19T04:33:39;14.40;99.90
9542;DHT22;4809;48.224;8.572;2023-09-19T04:36:05;14.30;99.90
9542;DHT22;4809;48.224;8.572;2023-09-19T04:38:32;14.40;99.90
9542;DHT22;4809;48.224;8.572;2023-09-19T04:40:58;14.30;99.90
9542;DHT22;4809;48.224;8.572;2023-09-19T04:43:24;14.30;99.90
9542;DHT22;4809;48.224;8.572;2023-09-19T04:45:50;14.30;99.90
9542;DHT22;4809;48.224;8.572;2023-09-19T04:48:16;14.30;99.90
9542;DHT22;4809;48.224;8.572;2023-09-19T04:50:42;14.20;99.90
9542;DHT22;4809;48.224;8.572;2023-09-19T04:53:08;14.20;99.90
9542;DHT22;4809;48.224;8.572;2023-09-19T04:55:33;14.20;99.90
9542;DHT22;4809;48.224;8.572;2023-09-19T04:57:59;14.20;99.90
9542;DHT22;4809;48.224;8.572;2023-09-19T05:00:25;14.20;99.90
9542;DHT22;4809;48.224;8.572;2023-09-19T05:02:55;14.20;99.90
9542;DHT22;4809;48.224;8.572;2023-09-19T05:05:23;14.20;99.90
9542;DHT22;4809;48.224;8.572;2023-09-19T05:07:50;14.20;99.90
9542;DHT22;4809;48.224;8.572;2023-09-19T05:10:17;14.30;99.90
9542;DHT22;4809;48.224;8.572;2023-09-19T05:12:45;14.20;99.90
9542;DHT22;4809;48.224;8.572;2023-09-19T05:15:14;14.20;99.90
9542;DHT22;4809;48.224;8.572;2023-09-19T05:17:47;14.30;99.90
9542;DHT22;4809;48.224;8.572;2023-09-19T05:20:12;14.40;99.90
9542;DHT22;4809;48.224;8.572;2023-09-19T05:22:44;14.40;99.90
9542;DHT22;4809;48.224;8.572;2023-09-19T05:25:11;14.40;99.90
9542;DHT22;4809;48.224;8.572;2023-09-19T05:27:42;14.50;99.90
9542;DHT22;4809;48.224;8.572;2023-09-19T05:30:08;14.50;99.90
9542;DHT22;4809;48.224;8.572;2023-09-19T05:32:39;14.50;99.90
9542;DHT22;4809;48.224;8.572;2023-09-19T05:35:05;14.50;99.90
9542;DHT22;4809;48.224;8.572;2023-09-19T05:37:35;14.60;99.90
9542;DHT22;4809;48.224;8.572;2023-09-19T05:40:02;14.60;99.90
9542;DHT22;4809;48.224;8.572;2023-09-19T05:42:32;14.60;99.90
9542;DHT22;4809;48.224;8.572;2023-09-19T05:44:58;14.60;99.90
9542;DHT22;4809;48.224;8.572;2023-09-19T05:47:24;14.70;99.90
9542;DHT22;4809;48.224;8.572;2023-09-19T05:49:50;14.60;99.90
9542;DHT22;4809;48.224;8.572;2023-09-19T05:52:16;14.70;99.90
9542;DHT22;4809;48.224;8.572;2023-09-19T05:54:43;14.70;99.90
9542;DHT22;4809;48.224;8.572;2023-09-19T05:57:08;14.70;99.90
9542;DHT22;4809;48.224;8.572;2023-09-19T05:59:36;14.60;99.90
9542;DHT22;4809;48.224;8.572;2023-09-19T06:02:01;14.80;99.90
9542;DHT22;4809;48.224;8.572;2023-09-19T06:04:30;14.80;99.90
9542;DHT22;4809;48.224;8.572;2023-09-19T06:06:56;14.90;99.90
9542;DHT22;4809;48.224;8.572;2023-09-19T06:09:22;14.90;99.90
9542;DHT22;4809;48.224;8.572;2023-09-19T06:11:48;15.00;99.90
9542;DHT22;4809;48.224;8.572;2023-09-19T06:14:14;15.10;99.90
9542;DHT22;4809;48.224;8.572;2023-09-19T06:16:39;15.20;99.90
9542;DHT22;4809;48.224;8.572;2023-09-19T06:19:06;15.20;99.90
9542;DHT22;4809;48.224;8.572;2023-09-19T06:21:34;15.20;99.90
9542;DHT22;4809;48.224;8.572;2023-09-19T06:24:00;15.30;99.90
9542;DHT22;4809;48.224;8.572;2023-09-19T06:26:25;15.30;99.90
9542;DHT22;4809;48.224;8.572;2023-09-19T06:28:52;15.30;99.90
9542;DHT22;4809;48.224;8.572;2023-09-19T06:31:18;15.30;99.90
9542;DHT22;4809;48.224;8.572;2023-09-19T06:33:43;15.40;99.90
9542;DHT22;4809;48.224;8.572;2023-09-19T06:36:09;15.50;99.90
9542;DHT22;4809;48.224;8.572;2023-09-19T06:38:35;15.50;99.90
9542;DHT22;4809;48.224;8.572;2023-09-19T06:41:04;15.50;99.90
9542;DHT22;4809;48.224;8.572;2023-09-19T06:43:34;15.60;99.90
9542;DHT22;4809;48.224;8.572;2023-09-19T06:46:00;15.50;99.90
9542;DHT22;4809;48.224;8.572;2023-09-19T06:48:26;15.50;99.90
9542;DHT22;4809;48.224;8.572;2023-09-19T06:50:58;15.50;99.90
9542;DHT22;4809;48.224;8.572;2023-09-19T06:53:26;15.50;99.90
9542;DHT22;4809;48.224;8.572;2023-09-19T06:55:52;15.50;99.90
9542;DHT22;4809;48.224;8.572;2023-09-19T06:58:17;15.50;99.90
9542;DHT22;4809;48.224;8.572;2023-09-19T07:00:43;15.40;99.90
9542;DHT22;4809;48.224;8.572;2023-09-19T07:03:10;15.40;99.90
9542;DHT22;4809;48.224;8.572;2023-09-19T07:05:39;15.40;99.90
9542;DHT22;4809;48.224;8.572;2023-09-19T07:08:09;15.40;99.90
9542;DHT22;4809;48.224;8.572;2023-09-19T07:10:36;15.30;99.90
9542;DHT22;4809;48.224;8.572;2023-09-19T07:13:03;15.20;99.90
9542;DHT22;4809;48.224;8.572;2023-09-19T07:15:31;15.20;99.90
9542;DHT22;4809;48.224;8.572;2023-09-19T07:17:59;14.90;99.90
9542;DHT22;4809;48.224;8.572;2023-09-19T07:20:25;14.90;99.90
9542;DHT22;4809;48.224;8.572;2023-09-19T07:22:52;14.80;99.90
9542;DHT22;4809;48.224;8.572;2023-09-19T07:25:20;14.70;99.90
9542;DHT22;4809;48.224;8.572;2023-09-19T07:27:46;14.60;99.90
9542;DHT22;4809;48.224;8.572;2023-09-19T07:30:12;14.60;99.90
9542;DHT22;4809;48.224;8.572;2023-09-19T07:32:38;14.50;99.90
9542;DHT22;4809;48.224;8.572;2023-09-19T07:35:06;14.50;99.90
9542;DHT22;4809;48.224;8.572;2023-09-19T07:37:32;14.50;99.90
9542;DHT22;4809;48.224;8.572;2023-09-19T07:40:04;14.40;99.90
9542;DHT22;4809;48.224;8.572;2023-09-19T07:42:35;14.40;99.90
9542;DHT22;4809;48.224;8.572;2023-09-19T07:45:02;14.40;99.90
9542;DHT22;4809;48.224;8.572;2023-09-19T07:47:28;14.50;99.90
9542;DHT22;4809;48.224;8.572;2023-09-19T07:49:55;14.60;99.90
9542;DHT22;4809;48.224;8.572;2023-09-19T07:52:21;14.90;99.90
9542;DHT22;4809;48.224;8.572;2023-09-19T07:54:48;15.00;99.90
9542;DHT22;4809;48.224;8.572;2023-09-19T07:57:14;15.10;99.90
9542;DHT22;4809;48.224;8.572;2023-09-19T07:59:40;15.20;99.90
9542;DHT22;4809;48.224;8.572;2023-09-19T08:02:08;15.50;99.90
9542;DHT22;4809;48.224;8.572;2023-09-19T08:04:43;15.60;99.90
9542;DHT22;4809;48.224;8.572;2023-09-19T08:07:12;15.60;99.90
9542;DHT22;4809;48.224;8.572;2023-09-19T08:09:38;15.60;99.90
9542;DHT22;4809;48.224;8.572;2023-09-19T08:12:05;15.90;99.90
9542;DHT22;4809;48.224;8.572;2023-09-19T08:14:33;16.30;99.90
9542;DHT22;4809;48.224;8.572;2023-09-19T08:16:59;16.70;99.90
9542;DHT22;4809;48.224;8.572;2023-09-19T08:19:26;17.00;99.90
9542;DHT22;4809;48.224;8.572;2023-09-19T08:21:57;17.30;99.90
9542;DHT22;4809;48.224;8.572;2023-09-19T08:24:29;17.50;99.90
9542;DHT22;4809;48.224;8.572;2023-09-19T08:26:56;17.50;99.90
9542;DHT22;4809;48.224;8.572;2023-09-19T08:29:23;17.80;99.90
9542;DHT22;4809;48.224;8.572;2023-09-19T08:31:54;17.90;99.90
9542;DHT22;4809;48.224;8.572;2023-09-19T08:34:21;18.20;99.90
9542;DHT22;4809;48.224;8.572;2023-09-19T08:36:47;18.50;99.90
9542;DHT22;4809;48.224;8.572;2023-09-19T08:39:13;18.70;99.90
9542;DHT22;4809;48.224;8.572;2023-09-19T08:41:39;19.10;99.90
9542;DHT22;4809;48.224;8.572;2023-09-19T08:44:05;19.30;99.90
9542;DHT22;4809;48.224;8.572;2023-09-19T08:46:34;18.80;99.90
9542;DHT22;4809;48.224;8.572;2023-09-19T08:49:05;18.40;99.90
9542;DHT22;4809;48.224;8.572;2023-09-19T08:51:41;18.00;99.90
9542;DHT22;4809;48.224;8.572;2023-09-19T08:54:15;17.70;99.90
9542;DHT22;4809;48.224;8.572;2023-09-19T08:56:45;17.50;99.90
9542;DHT22;4809;48.224;8.572;2023-09-19T08:59:12;17.40;99.90
9542;DHT22;4809;48.224;8.572;2023-09-19T09:01:39;17.50;99.90
9542;DHT22;4809;48.224;8.572;2023-09-19T09:04:08;17.70;99.90
9542;DHT22;4809;48.224;8.572;2023-09-19T09:06:34;17.80;99.90
9542;DHT22;4809;48.224;8.572;2023-09-19T09:09:02;17.80;99.90
9542;DHT22;4809;48.224;8.572;2023-09-19T09:11:28;17.80;99.90
9542;DHT22;4809;48.224;8.572;2023-09-19T09:13:54;17.80;99.90
9542;DHT22;4809;48.224;8.572;2023-09-19T09:16:20;17.80;99.90
9542;DHT22;4809;48.224;8.572;2023-09-19T09:18:46;17.70;99.90
9542;DHT22;4809;48.224;8.572;2023-09-19T09:21:18;17.50;99.90
9542;DHT22;4809;48.224;8.572;2023-09-19T09:23:43;17.50;99.90
9542;DHT22;4809;48.224;8.572;2023-09-19T09:26:09;17.60;99.90
9542;DHT22;4809;48.224;8.572;2023-09-19T09:28:35;17.60;99.90
9542;DHT22;4809;48.224;8.572;2023-09-19T09:31:04;17.70;99.90
9542;DHT22;4809;48.224;8.572;2023-09-19T09:33:35;17.90;99.90
9542;DHT22;4809;48.224;8.572;2023-09-19T09:36:02;18.00;99.90
9542;DHT22;4809;48.224;8.572;2023-09-19T09:38:30;18.60;99.90
9542;DHT22;4809;48.224;8.572;2023-09-19T09:41:09;19.20;99.90
9542;DHT22;4809;48.224;8.572;2023-09-19T09:43:39;19.80;99.90
9542;DHT22;4809;48.224;8.572;2023-09-19T09:46:11;20.00;99.90
9542;DHT22;4809;48.224;8.572;2023-09-19T09:49:00;20.00;99.90
9542;DHT22;4809;48.224;8.572;2023-09-19T09:52:07;20.10;99.90
9542;DHT22;4809;48.224;8.572;2023-09-19T09:54:34;20.00;99.90
9542;DHT22;4809;48.224;8.572;2023-09-19T09:57:07;19.60;99.90
9542;DHT22;4809;48.224;8.572;2023-09-19T09:59:53;19.30;99.90
9542;DHT22;4809;48.224;8.572;2023-09-19T10:02:27;19.50;99.90
9542;DHT22;4809;48.224;8.572;2023-09-19T10:05:17;19.60;99.90
9542;DHT22;4809;48.224;8.572;2023-09-19T10:07:51;19.70;99.90
9542;DHT22;4809;48.224;8.572;2023-09-19T10:10:34;19.70;99.90
9542;DHT22;4809;48.224;8.572;2023-09-19T10:13:25;19.40;99.90
9542;DHT22;4809;48.224;8.572;2023-09-19T10:15:55;19.10;99.90
9542;DHT22;4809;48.224;8.572;2023-09-19T10:18:25;19.20;99.90
9542;DHT22;4809;48.224;8.572;2023-09-19T10:20:52;19.50;99.90
9542;DHT22;4809;48.224;8.572;2023-09-19T10:23:19;19.80;99.90
9542;DHT22;4809;48.224;8.572;2023-09-19T10:25:49;20.00;99.90
9542;DHT22;4809;48.224;8.572;2023-09-19T10:28:16;20.10;99.90
9542;DHT22;4809;48.224;8.572;2023-09-19T10:30:46;20.50;99.90
9542;DHT22;4809;48.224;8.572;2023-09-19T10:33:17;20.90;99.90
9542;DHT22;4809;48.224;8.572;2023-09-19T10:35:46;21.30;99.90
9542;DHT22;4809;48.224;8.572;2023-09-19T10:38:15;21.50;99.90
9542;DHT22;4809;48.224;8.572;2023-09-19T10:40:43;21.60;99.90
9542;DHT22;4809;48.224;8.572;2023-09-19T10:43:20;21.60;99.90
9542;DHT22;4809;48.224;8.572;2023-09-19T10:45:47;21.80;99.90
9542;DHT22;4809;48.224;8.572;2023-09-19T10:48:18;21.70;99.90
9542;DHT22;4809;48.224;8.572;2023-09-19T10:51:17;21.80;99.90
9542;DHT22;4809;48.224;8.572;2023-09-19T10:56:35;22.10;99.90
9542;DHT22;4809;48.224;8.572;2023-09-19T10:59:15;22.00;99.90
9542;DHT22;4809;48.224;8.572;2023-09-19T11:01:43;21.90;99.90
9542;DHT22;4809;48.224;8.572;2023-09-19T11:04:36;21.90;99.90
9542;DHT22;4809;48.224;8.572;2023-09-19T11:07:11;21.70;99.90
9542;DHT22;4809;48.224;8.572;2023-09-19T11:09:56;21.70;99.90
9542;DHT22;4809;48.224;8.572;2023-09-19T11:15:07;21.40;99.90
9542;DHT22;4809;48.224;8.572;2023-09-19T11:17:37;21.40;99.90
9542;DHT22;4809;48.224;8.572;2023-09-19T11:30:47;21.80;98.70
9542;DHT22;4809;48.224;8.572;2023-09-19T11:33:31;21.60;99.90
9542;DHT22;4809;48.224;8.572;2023-09-19T11:46:27;23.20;97.80
9542;DHT22;4809;48.224;8.572;2023-09-19T11:48:53;23.50;97.40
9542;DHT22;4809;48.224;8.572;2023-09-19T11:51:20;23.80;95.80
9542;DHT22;4809;48.224;8.572;2023-09-19T11:53:52;24.20;96.00
9542;DHT22;4809;48.224;8.572;2023-09-19T11:56:20;24.40;97.00
9542;DHT22;4809;48.224;8.572;2023-09-19T11:58:52;24.40;92.00
9542;DHT22;4809;48.224;8.572;2023-09-19T12:01:30;24.20;94.50
9542;DHT22;4809;48.224;8.572;2023-09-19T12:03:58;24.20;94.80
9542;DHT22;4809;48.224;8.572;2023-09-19T12:06:25;24.10;93.70
9542;DHT22;4809;48.224;8.572;2023-09-19T12:08:51;24.30;92.60
9542;DHT22;4809;48.224;8.572;2023-09-19T12:11:21;24.20;91.60
9542;DHT22;4809;48.224;8.572;2023-09-19T12:13:49;23.80;90.60
9542;DHT22;4809;48.224;8.572;2023-09-19T12:16:16;23.20;92.50
9542;DHT22;4809;48.224;8.572;2023-09-19T12:18:43;23.00;92.30
9542;DHT22;4809;48.224;8.572;2023-09-19T12:21:27;23.40;93.10
9542;DHT22;4809;48.224;8.572;2023-09-19T12:26:28;23.30;94.50
9542;DHT22;4809;48.224;8.572;2023-09-19T12:28:55;23.60;93.50
9542;DHT22;4809;48.224;8.572;2023-09-19T12:31:21;23.70;93.20
9542;DHT22;4809;48.224;8.572;2023-09-19T12:33:56;23.80;91.70
9542;DHT22;4809;48.224;8.572;2023-09-19T12:36:25;23.80;91.40
9542;DHT22;4809;48.224;8.572;2023-09-19T12:38:59;24.00;91.90
9542;DHT22;4809;48.224;8.572;2023-09-19T12:41:25;24.40;91.50
9542;DHT22;4809;48.224;8.572;2023-09-19T12:43:53;24.50;90.50
9542;DHT22;4809;48.224;8.572;2023-09-19T12:46:22;24.60;91.90
9542;DHT22;4809;48.224;8.572;2023-09-19T12:49:19;25.10;90.50
9542;DHT22;4809;48.224;8.572;2023-09-19T12:51:46;25.40;87.70
9542;DHT22;4809;48.224;8.572;2023-09-19T12:54:13;25.60;84.40
9542;DHT22;4809;48.224;8.572;2023-09-19T12:56:43;25.60;86.30
9542;DHT22;4809;48.224;8.572;2023-09-19T12:59:16;25.20;84.70
9542;DHT22;4809;48.224;8.572;2023-09-19T13:01:42;25.10;86.30
9542;DHT22;4809;48.224;8.572;2023-09-19T13:04:21;25.20;84.60
9542;DHT22;4809;48.224;8.572;2023-09-19T13:06:55;25.20;82.70
9542;DHT22;4809;48.224;8.572;2023-09-19T13:09:27;24.80;82.40
9542;DHT22;4809;48.224;8.572;2023-09-19T13:12:04;24.70;83.20
9542;DHT22;4809;48.224;8.572;2023-09-19T13:14:31;24.80;83.50
9542;DHT22;4809;48.224;8.572;2023-09-19T13:17:02;25.10;82.70
9542;DHT22;4809;48.224;8.572;2023-09-19T13:19:50;24.80;80.70
9542;DHT22;4809;48.224;8.572;2023-09-19T13:22:45;24.60;84.80
9542;DHT22;4809;48.224;8.572;2023-09-19T13:25:15;24.70;83.20
9542;DHT22;4809;48.224;8.572;2023-09-19T13:27:54;24.70;84.70
9542;DHT22;4809;48.224;8.572;2023-09-19T13:30:26;25.10;82.10
9542;DHT22;4809;48.224;8.572;2023-09-19T13:33:08;25.00;80.80
9542;DHT22;4809;48.224;8.572;2023-09-19T13:35:35;24.90;82.80
9542;DHT22;4809;48.224;8.572;2023-09-19T13:38:04;25.00;80.70
9542;DHT22;4809;48.224;8.572;2023-09-19T13:40:29;25.40;79.40
9542;DHT22;4809;48.224;8.572;2023-09-19T13:43:00;25.80;78.70
9542;DHT22;4809;48.224;8.572;2023-09-19T13:45:26;26.10;79.10
9542;DHT22;4809;48.224;8.572;2023-09-19T13:47:56;26.40;75.80
9542;DHT22;4809;48.224;8.572;2023-09-19T13:50:21;26.10;75.10
9542;DHT22;4809;48.224;8.572;2023-09-19T13:52:50;26.10;77.60
9542;DHT22;4809;48.224;8.572;2023-09-19T13:55:17;26.00;76.00
9542;DHT22;4809;48.224;8.572;2023-09-19T13:57:46;26.00;74.70
9542;DHT22;4809;48.224;8.572;2023-09-19T14:00:15;25.70;75.70
9542;DHT22;4809;48.224;8.572;2023-09-19T14:02:42;25.90;77.60
9542;DHT22;4809;48.224;8.572;2023-09-19T14:05:12;25.90;76.30
9542;DHT22;4809;48.224;8.572;2023-09-19T14:07:41;26.10;73.00
9542;DHT22;4809;48.224;8.572;2023-09-19T14:10:07;26.00;68.40
9542;DHT22;4809;48.224;8.572;2023-09-19T14:12:36;25.90;70.60
9542;DHT22;4809;48.224;8.572;2023-09-19T14:15:05;26.20;72.70
9542;DHT22;4809;48.224;8.572;2023-09-19T14:17:32;26.40;68.90
9542;DHT22;4809;48.224;8.572;2023-09-19T14:19:58;26.70;70.00
9542;DHT22;4809;48.224;8.572;2023-09-19T14:22:24;26.70;68.00
9542;DHT22;4809;48.224;8.572;2023-09-19T14:24:49;26.90;67.70
9542;DHT22;4809;48.224;8.572;2023-09-19T14:27:15;26.70;65.50
9542;DHT22;4809;48.224;8.572;2023-09-19T14:29:40;26.70;65.30
9542;DHT22;4809;48.224;8.572;2023-09-19T14:32:06;26.70;67.70
9542;DHT22;4809;48.224;8.572;2023-09-19T14:34:32;26.70;66.10
9542;DHT22;4809;48.224;8.572;2023-09-19T14:36:58;26.70;64.90
9542;DHT22;4809;48.224;8.572;2023-09-19T14:39:24;26.90;64.80
9542;DHT22;4809;48.224;8.572;2023-09-19T14:41:50;27.20;64.40
9542;DHT22;4809;48.224;8.572;2023-09-19T14:44:16;27.90;62.40
9542;DHT22;4809;48.224;8.572;2023-09-19T14:46:42;28.90;60.90
9542;DHT22;4809;48.224;8.572;2023-09-19T14:49:10;29.90;58.50
9542;DHT22;4809;48.224;8.572;2023-09-19T14:51:37;31.20;55.90
9542;DHT22;4809;48.224;8.572;2023-09-19T14:54:05;32.60;51.40
9542;DHT22;4809;48.224;8.572;2023-09-19T14:56:32;34.80;46.60
9542;DHT22;4809;48.224;8.572;2023-09-19T14:58:58;36.20;42.40
9542;DHT22;4809;48.224;8.572;2023-09-19T15:01:23;37.80;39.40
9542;DHT22;4809;48.224;8.572;2023-09-19T15:03:49;39.50;36.40
9542;DHT22;4809;48.224;8.572;2023-09-19T15:06:15;39.70;35.70
9542;DHT22;4809;48.224;8.572;2023-09-19T15:08:43;37.10;37.20
9542;DHT22;4809;48.224;8.572;2023-09-19T15:11:21;38.10;35.60
9542;DHT22;4809;48.224;8.572;2023-09-19T15:13:51;39.50;34.80
9542;DHT22;4809;48.224;8.572;2023-09-19T15:16:17;40.30;31.70
9542;DHT22;4809;48.224;8.572;2023-09-19T15:18:45;40.60;31.30
9542;DHT22;4809;48.224;8.572;2023-09-19T15:21:13;40.80;30.40
9542;DHT22;4809;48.224;8.572;2023-09-19T15:23:40;40.70;30.20
9542;DHT22;4809;48.224;8.572;2023-09-19T15:26:08;40.90;30.30
9542;DHT22;4809;48.224;8.572;2023-09-19T15:28:34;41.40;29.90
9542;DHT22;4809;48.224;8.572;2023-09-19T15:33:29;41.70;29.00
9542;DHT22;4809;48.224;8.572;2023-09-19T15:38:31;41.40;29.30
9542;DHT22;4809;48.224;8.572;2023-09-19T15:40:58;41.10;29.20
9542;DHT22;4809;48.224;8.572;2023-09-19T15:43:24;41.40;28.70
9542;DHT22;4809;48.224;8.572;2023-09-19T15:45:50;41.80;28.30
9542;DHT22;4809;48.224;8.572;2023-09-19T15:48:17;41.70;28.20
9542;DHT22;4809;48.224;8.572;2023-09-19T15:50:43;42.10;28.20
9542;DHT22;4809;48.224;8.572;2023-09-19T15:53:10;42.50;27.90
9542;DHT22;4809;48.224;8.572;2023-09-19T15:55:41;41.60;27.90
9542;DHT22;4809;48.224;8.572;2023-09-19T15:58:07;40.30;28.70
9542;DHT22;4809;48.224;8.572;2023-09-19T16:00:33;38.60;30.50
9542;DHT22;4809;48.224;8.572;2023-09-19T16:03:02;34.60;35.00
9542;DHT22;4809;48.224;8.572;2023-09-19T16:05:34;30.60;41.80
9542;DHT22;4809;48.224;8.572;2023-09-19T16:08:03;28.30;46.60
9542;DHT22;4809;48.224;8.572;2023-09-19T16:10:29;26.30;50.00
9542;DHT22;4809;48.224;8.572;2023-09-19T16:12:55;24.30;53.40
9542;DHT22;4809;48.224;8.572;2023-09-19T16:15:20;23.50;56.40
9542;DHT22;4809;48.224;8.572;2023-09-19T16:17:46;22.90;58.50
9542;DHT22;4809;48.224;8.572;2023-09-19T16:20:12;22.50;60.20
9542;DHT22;4809;48.224;8.572;2023-09-19T16:22:39;22.10;60.10
9542;DHT22;4809;48.224;8.572;2023-09-19T16:25:06;21.90;61.80
9542;DHT22;4809;48.224;8.572;2023-09-19T16:27:31;21.70;62.40
9542;DHT22;4809;48.224;8.572;2023-09-19T16:29:57;21.50;63.50
9542;DHT22;4809;48.224;8.572;2023-09-19T16:32:23;21.50;64.50
9542;DHT22;4809;48.224;8.572;2023-09-19T16:34:48;21.50;65.20
9542;DHT22;4809;48.224;8.572;2023-09-19T16:37:14;21.40;64.80
9542;DHT22;4809;48.224;8.572;2023-09-19T16:39:40;21.30;64.90
9542;DHT22;4809;48.224;8.572;2023-09-19T16:42:07;21.20;66.00
9542;DHT22;4809;48.224;8.572;2023-09-19T16:44:33;21.10;66.00
9542;DHT22;4809;48.224;8.572;2023-09-19T16:46:59;20.90;67.30
9542;DHT22;4809;48.224;8.572;2023-09-19T16:49:28;20.80;67.70
9542;DHT22;4809;48.224;8.572;2023-09-19T16:51:55;20.90;68.50
9542;DHT22;4809;48.224;8.572;2023-09-19T16:54:20;20.90;68.80
9542;DHT22;4809;48.224;8.572;2023-09-19T16:56:46;20.80;68.90
9542;DHT22;4809;48.224;8.572;2023-09-19T16:59:12;20.60;70.60
9542;DHT22;4809;48.224;8.572;2023-09-19T17:01:38;20.60;71.40
9542;DHT22;4809;48.224;8.572;2023-09-19T17:04:04;20.40;71.20
9542;DHT22;4809;48.224;8.572;2023-09-19T17:06:31;20.30;71.60
9542;DHT22;4809;48.224;8.572;2023-09-19T17:08:57;20.10;72.10